sensor_id;sensor_type;location;lat;lon;timestamp;pressure;altitude;pressure_sealevel;temperature;humidity
20017;BME280;10169;42.664;23.610;2023-04-04T00:01:15;93924.19;;;7.84;100.00
20017;BME280;10169;42.664;23.610;2023-04-04T00:03:15;93925.22;;;7.83;100.00
20017;BME280;10169;42.664;23.610;2023-04-04T00:05:16;93925.50;;;7.81;100.00
20017;BME280;10169;42.664;23.610;2023-04-04T00:07:16;93923.13;;;7.80;100.00
20017;BME280;10169;42.664;23.610;2023-04-04T00:09:17;93922.00;;;7.71;100.00
20017;BME280;10169;42.664;23.610;2023-04-04T00:11:17;93921.19;;;7.70;100.00
20017;BME280;10169;42.664;23.610;2023-04-04T00:13:17;93921.25;;;7.75;100.00
20017;BME280;10169;42.664;23.610;2023-04-04T00:15:17;93925.41;;;7.66;100.00
20017;BME280;10169;42.664;23.610;2023-04-04T00:17:18;93942.63;;;7.74;100.00
20017;BME280;10169;42.664;23.610;2023-04-04T00:19:18;93937.38;;;7.79;100.00
20017;BME280;10169;42.664;23.610;2023-04-04T00:21:18;93939.25;;;7.83;100.00
20017;BME280;10169;42.664;23.610;2023-04-04T00:23:19;93940.81;;;7.79;100.00
20017;BME280;10169;42.664;23.610;2023-04-04T00:25:19;93929.19;;;7.80;100.00
20017;BME280;10169;42.664;23.610;2023-04-04T00:27:19;93930.88;;;7.96;100.00
20017;BME280;10169;42.664;23.610;2023-04-04T00:29:20;93928.94;;;7.82;100.00
20017;BME280;10169;42.664;23.610;2023-04-04T00:31:20;93936.22;;;7.60;100.00
20017;BME280;10169;42.664;23.610;2023-04-04T00:33:20;93929.94;;;7.71;100.00
20017;BME280;10169;42.664;23.610;2023-04-04T00:35:21;93932.31;;;7.72;100.00
20017;BME280;10169;42.664;23.610;2023-04-04T00:37:21;93929.94;;;7.71;100.00
20017;BME280;10169;42.664;23.610;2023-04-04T00:39:22;93915.19;;;7.80;100.00
20017;BME280;10169;42.664;23.610;2023-04-04T00:41:22;93922.59;;;7.83;100.00
20017;BME280;10169;42.664;23.610;2023-04-04T00:43:23;93918.91;;;7.84;100.00
20017;BME280;10169;42.664;23.610;2023-04-04T00:45:24;93906.47;;;7.84;100.00
20017;BME280;10169;42.664;23.610;2023-04-04T00:47:28;93907.78;;;7.87;100.00
20017;BME280;10169;42.664;23.610;2023-04-04T00:49:29;93898.56;;;7.84;100.00
20017;BME280;10169;42.664;23.610;2023-04-04T00:51:29;93895.09;;;7.84;100.00
20017;BME280;10169;42.664;23.610;2023-04-04T00:53:30;93893.75;;;7.81;100.00
20017;BME280;10169;42.664;23.610;2023-04-04T00:55:31;93877.59;;;7.78;100.00
20017;BME280;10169;42.664;23.610;2023-04-04T00:57:31;93882.66;;;7.79;100.00
20017;BME280;10169;42.664;23.610;2023-04-04T00:59:32;93880.31;;;7.88;100.00
20017;BME280;10169;42.664;23.610;2023-04-04T01:01:33;93890.09;;;7.87;100.00
20017;BME280;10169;42.664;23.610;2023-04-04T01:03:34;93891.44;;;7.90;100.00
20017;BME280;10169;42.664;23.610;2023-04-04T01:05:35;93880.25;;;7.78;100.00
20017;BME280;10169;42.664;23.610;2023-04-04T01:07:35;93900.69;;;7.92;100.00
20017;BME280;10169;42.664;23.610;2023-04-04T01:09:35;93901.47;;;7.88;100.00
20017;BME280;10169;42.664;23.610;2023-04-04T01:11:36;93898.56;;;7.84;100.00
20017;BME280;10169;42.664;23.610;2023-04-04T01:13:37;93900.16;;;7.90;100.00
20017;BME280;10169;42.664;23.610;2023-04-04T01:15:37;93895.91;;;7.89;100.00
20017;BME280;10169;42.664;23.610;2023-04-04T01:17:38;93889.06;;;7.98;100.00
20017;BME280;10169;42.664;23.610;2023-04-04T01:21:58;93894.81;;;8.32;100.00
20017;BME280;10169;42.664;23.610;2023-04-04T01:23:59;93889.56;;;8.42;100.00
20017;BME280;10169;42.664;23.610;2023-04-04T01:26:03;93890.09;;;8.44;100.00
20017;BME280;10169;42.664;23.610;2023-04-04T01:28:04;93898.31;;;8.53;100.00
20017;BME280;10169;42.664;23.610;2023-04-04T01:30:05;93896.75;;;8.62;100.00
20017;BME280;10169;42.664;23.610;2023-04-04T01:32:07;93884.88;;;8.74;100.00
20017;BME280;10169;42.664;23.610;2023-04-04T01:36:35;93878.22;;;8.62;100.00
20017;BME280;10169;42.664;23.610;2023-04-04T01:38:41;93876.63;;;8.66;100.00
20017;BME280;10169;42.664;23.610;2023-04-04T01:40:49;93884.34;;;8.77;100.00
20017;BME280;10169;42.664;23.610;2023-04-04T01:42:51;93881.16;;;8.75;100.00
20017;BME280;10169;42.664;23.610;2023-04-04T01:44:55;93869.50;;;8.76;100.00
20017;BME280;10169;42.664;23.610;2023-04-04T01:46:56;93872.94;;;8.77;100.00
20017;BME280;10169;42.664;23.610;2023-04-04T01:48:56;93874.03;;;8.86;100.00
20017;BME280;10169;42.664;23.610;2023-04-04T01:50:57;93870.34;;;8.87;100.00
20017;BME280;10169;42.664;23.610;2023-04-04T01:52:58;93869.53;;;8.92;100.00
20017;BME280;10169;42.664;23.610;2023-04-04T01:54:59;93871.66;;;8.95;100.00
20017;BME280;10169;42.664;23.610;2023-04-04T01:56:59;93871.38;;;8.86;100.00
20017;BME280;10169;42.664;23.610;2023-04-04T01:58:59;93870.03;;;8.84;100.00
20017;BME280;10169;42.664;23.610;2023-04-04T02:01:00;93869.00;;;8.80;100.00
20017;BME280;10169;42.664;23.610;2023-04-04T02:03:00;93871.91;;;8.88;100.00
20017;BME280;10169;42.664;23.610;2023-04-04T02:05:01;93874.03;;;8.86;100.00
20017;BME280;10169;42.664;23.610;2023-04-04T02:07:03;93876.44;;;8.88;100.00
20017;BME280;10169;42.664;23.610;2023-04-04T02:09:03;93875.09;;;8.85;100.00
20017;BME280;10169;42.664;23.610;2023-04-04T02:11:03;93876.16;;;8.84;100.00
20017;BME280;10169;42.664;23.610;2023-04-04T02:13:04;93882.25;;;8.85;100.00
20017;BME280;10169;42.664;23.610;2023-04-04T02:15:05;93880.13;;;8.92;100.00
20017;BME280;10169;42.664;23.610;2023-04-04T02:17:06;93884.38;;;8.98;100.00
20017;BME280;10169;42.664;23.610;2023-04-04T02:19:06;93876.44;;;8.98;100.00
20017;BME280;10169;42.664;23.610;2023-04-04T02:21:07;93873.78;;;9.03;100.00
20017;BME280;10169;42.664;23.610;2023-04-04T02:23:07;93878.03;;;8.94;100.00
20017;BME280;10169;42.664;23.610;2023-04-04T02:25:08;93872.47;;;9.00;100.00
20017;BME280;10169;42.664;23.610;2023-04-04T02:27:08;93868.47;;;8.88;100.00
20017;BME280;10169;42.664;23.610;2023-04-04T02:29:08;93872.66;;;8.53;100.00
20017;BME280;10169;42.664;23.610;2023-04-04T02:31:09;93875.78;;;8.40;100.00
20017;BME280;10169;42.664;23.610;2023-04-04T02:33:09;93873.41;;;8.44;100.00
20017;BME280;10169;42.664;23.610;2023-04-04T02:35:09;93883.25;;;8.53;100.00
20017;BME280;10169;42.664;23.610;2023-04-04T02:37:10;93882.47;;;8.58;100.00
20017;BME280;10169;42.664;23.610;2023-04-04T02:39:10;93881.13;;;8.55;100.00
20017;BME280;10169;42.664;23.610;2023-04-04T02:41:10;93885.34;;;8.46;100.00
20017;BME280;10169;42.664;23.610;2023-04-04T02:43:11;93880.56;;;8.48;100.00
20017;BME280;10169;42.664;23.610;2023-04-04T02:45:11;93882.94;;;8.50;100.00
20017;BME280;10169;42.664;23.610;2023-04-04T02:47:13;93884.81;;;8.49;100.00
20017;BME280;10169;42.664;23.610;2023-04-04T02:49:13;93889.59;;;8.52;100.00
20017;BME280;10169;42.664;23.610;2023-04-04T02:51:14;93885.59;;;8.45;100.00
20017;BME280;10169;42.664;23.610;2023-04-04T02:53:14;93889.81;;;8.46;100.00
20017;BME280;10169;42.664;23.610;2023-04-04T02:55:15;93880.56;;;8.48;100.00
20017;BME280;10169;42.664;23.610;2023-04-04T02:57:15;93891.38;;;8.37;100.00
20017;BME280;10169;42.664;23.610;2023-04-04T02:59:15;93893.28;;;8.46;100.00
20017;BME280;10169;42.664;23.610;2023-04-04T03:01:17;93894.06;;;8.42;100.00
20017;BME280;10169;42.664;23.610;2023-04-04T03:03:17;93890.84;;;8.35;100.00
20017;BME280;10169;42.664;23.610;2023-04-04T03:05:17;93898.00;;;8.39;100.00
20017;BME280;10169;42.664;23.610;2023-04-04T03:07:18;93890.88;;;8.40;100.00
20017;BME280;10169;42.664;23.610;2023-04-04T03:09:18;93895.38;;;8.39;100.00
20017;BME280;10169;42.664;23.610;2023-04-04T03:11:18;93890.88;;;8.40;100.00
20017;BME280;10169;42.664;23.610;2023-04-04T03:13:22;93900.66;;;8.39;100.00
20017;BME280;10169;42.664;23.610;2023-04-04T03:15:22;93897.22;;;8.39;100.00
20017;BME280;10169;42.664;23.610;2023-04-04T03:17:23;93890.34;;;8.38;100.00
20017;BME280;10169;42.664;23.610;2023-04-04T03:19:24;93902.81;;;8.42;100.00
20017;BME280;10169;42.664;23.610;2023-04-04T03:21:25;93901.19;;;8.41;100.00
20017;BME280;10169;42.664;23.610;2023-04-04T03:23:25;93904.38;;;8.38;100.00
20017;BME280;10169;42.664;23.610;2023-04-04T03:25:25;93898.56;;;8.41;100.00
20017;BME280;10169;42.664;23.610;2023-04-04T03:27:25;93897.47;;;8.37;100.00
20017;BME280;10169;42.664;23.610;2023-04-04T03:29:26;93899.09;;;8.38;100.00
20017;BME280;10169;42.664;23.610;2023-04-04T03:31:27;93896.44;;;8.38;100.00
20017;BME280;10169;42.664;23.610;2023-04-04T03:33:27;93895.09;;;8.41;100.00
20017;BME280;10169;42.664;23.610;2023-04-04T03:35:27;93895.34;;;8.34;100.00
20017;BME280;10169;42.664;23.610;2023-04-04T03:37:28;93894.06;;;8.42;100.00
20017;BME280;10169;42.664;23.610;2023-04-04T03:39:29;93900.69;;;8.44;100.00
20017;BME280;10169;42.664;23.610;2023-04-04T03:41:29;93891.69;;;8.45;100.00
20017;BME280;10169;42.664;23.610;2023-04-04T03:43:30;93894.63;;;8.59;100.00
20017;BME280;10169;42.664;23.610;2023-04-04T03:45:32;93892.50;;;8.61;100.00
20017;BME280;10169;42.664;23.610;2023-04-04T03:47:33;93886.44;;;8.60;100.00
20017;BME280;10169;42.664;23.610;2023-04-04T03:49:33;93886.16;;;8.57;100.00
20017;BME280;10169;42.664;23.610;2023-04-04T03:51:34;93888.00;;;8.51;100.00
20017;BME280;10169;42.664;23.610;2023-04-04T03:53:35;93879.00;;;8.52;100.00
20017;BME280;10169;42.664;23.610;2023-04-04T03:55:35;93880.59;;;8.53;100.00
20017;BME280;10169;42.664;23.610;2023-04-04T03:57:39;93882.44;;;8.53;100.00
20017;BME280;10169;42.664;23.610;2023-04-04T03:59:39;93877.41;;;8.56;100.00
20017;BME280;10169;42.664;23.610;2023-04-04T04:01:40;93880.06;;;8.56;100.00
20017;BME280;10169;42.664;23.610;2023-04-04T04:03:40;93881.66;;;8.57;100.00
20017;BME280;10169;42.664;23.610;2023-04-04T04:05:40;93873.19;;;8.55;100.00
20017;BME280;10169;42.664;23.610;2023-04-04T04:07:44;93875.84;;;8.55;100.00
20017;BME280;10169;42.664;23.610;2023-04-04T04:09:44;93870.50;;;8.50;100.00
20017;BME280;10169;42.664;23.610;2023-04-04T04:11:45;93874.47;;;8.48;100.00
20017;BME280;10169;42.664;23.610;2023-04-04T04:13:46;93876.31;;;8.47;100.00
20017;BME280;10169;42.664;23.610;2023-04-04T04:15:46;93871.03;;;8.47;100.00
20017;BME280;10169;42.664;23.610;2023-04-04T04:17:46;93875.81;;;8.50;100.00
20017;BME280;10169;42.664;23.610;2023-04-04T04:19:47;93879.25;;;8.51;100.00
20017;BME280;10169;42.664;23.610;2023-04-04T04:21:47;93873.97;;;8.51;100.00
20017;BME280;10169;42.664;23.610;2023-04-04T04:23:47;93889.59;;;8.52;100.00
20017;BME280;10169;42.664;23.610;2023-04-04T04:25:47;93895.69;;;8.53;100.00
20017;BME280;10169;42.664;23.610;2023-04-04T04:27:48;93902.34;;;8.60;100.00
20017;BME280;10169;42.664;23.610;2023-04-04T04:29:48;93908.13;;;8.57;100.00
20017;BME280;10169;42.664;23.610;2023-04-04T04:31:49;93907.88;;;8.59;100.00
20017;BME280;10169;42.664;23.610;2023-04-04T04:33:49;93902.56;;;8.59;100.00
20017;BME280;10169;42.664;23.610;2023-04-04T04:35:49;93906.81;;;8.60;100.00
20017;BME280;10169;42.664;23.610;2023-04-04T04:37:49;93903.09;;;8.61;100.00
20017;BME280;10169;42.664;23.610;2023-04-04T04:39:51;93907.63;;;8.60;100.00
20017;BME280;10169;42.664;23.610;2023-04-04T04:41:52;93910.00;;;8.62;100.00
20017;BME280;10169;42.664;23.610;2023-04-04T04:43:52;93912.91;;;8.60;100.00
20017;BME280;10169;42.664;23.610;2023-04-04T04:45:52;93916.09;;;8.67;100.00
20017;BME280;10169;42.664;23.610;2023-04-04T04:47:53;93916.13;;;8.72;100.00
20017;BME280;10169;42.664;23.610;2023-04-04T04:49:53;93914.00;;;8.74;100.00
20017;BME280;10169;42.664;23.610;2023-04-04T04:51:53;93914.78;;;8.75;100.00
20017;BME280;10169;42.664;23.610;2023-04-04T04:53:54;93912.44;;;8.84;100.00
20017;BME280;10169;42.664;23.610;2023-04-04T04:55:55;93918.81;;;8.83;100.00
20017;BME280;10169;42.664;23.610;2023-04-04T04:57:55;93916.94;;;8.88;100.00
20017;BME280;10169;42.664;23.610;2023-04-04T04:59:56;93919.88;;;8.97;100.00
20017;BME280;10169;42.664;23.610;2023-04-04T05:01:56;93923.84;;;8.94;100.00
20017;BME280;10169;42.664;23.610;2023-04-04T05:03:56;93916.69;;;9.00;100.00
20017;BME280;10169;42.664;23.610;2023-04-04T05:05:56;93923.06;;;8.99;100.00
20017;BME280;10169;42.664;23.610;2023-04-04T05:07:57;93924.38;;;9.01;100.00
20017;BME280;10169;42.664;23.610;2023-04-04T05:09:57;93926.00;;;9.12;100.00
20017;BME280;10169;42.664;23.610;2023-04-04T05:11:57;93927.84;;;9.12;100.00
20017;BME280;10169;42.664;23.610;2023-04-04T05:13:58;93930.25;;;9.18;100.00
20017;BME280;10169;42.664;23.610;2023-04-04T05:15:58;93933.16;;;9.27;100.00
20017;BME280;10169;42.664;23.610;2023-04-04T05:17:59;93931.56;;;9.31;100.00
20017;BME280;10169;42.664;23.610;2023-04-04T05:19:59;93934.50;;;9.34;100.00
20017;BME280;10169;42.664;23.610;2023-04-04T05:21:59;93934.22;;;9.31;100.00
20017;BME280;10169;42.664;23.610;2023-04-04T05:24:00;93935.28;;;9.40;100.00
20017;BME280;10169;42.664;23.610;2023-04-04T05:26:01;93936.88;;;9.41;100.00
20017;BME280;10169;42.664;23.610;2023-04-04T05:28:02;93934.75;;;9.38;100.00
20017;BME280;10169;42.664;23.610;2023-04-04T05:30:03;93935.56;;;9.43;100.00
20017;BME280;10169;42.664;23.610;2023-04-04T05:32:03;93940.34;;;9.36;100.00
20017;BME280;10169;42.664;23.610;2023-04-04T05:34:04;93946.44;;;9.47;100.00
20017;BME280;10169;42.664;23.610;2023-04-04T05:36:07;93944.56;;;9.42;100.00
20017;BME280;10169;42.664;23.610;2023-04-04T05:38:07;93942.19;;;9.41;100.00
20017;BME280;10169;42.664;23.610;2023-04-04T05:40:08;93947.75;;;9.39;100.00
20017;BME280;10169;42.664;23.610;2023-04-04T05:42:08;93946.69;;;9.45;100.00
20017;BME280;10169;42.664;23.610;2023-04-04T05:44:09;93942.97;;;9.46;100.00
20017;BME280;10169;42.664;23.610;2023-04-04T05:46:09;93940.06;;;9.53;100.00
20017;BME280;10169;42.664;23.610;2023-04-04T05:48:10;93937.94;;;9.60;100.00
20017;BME280;10169;42.664;23.610;2023-04-04T05:50:10;93938.19;;;9.54;100.00
20017;BME280;10169;42.664;23.610;2023-04-04T05:52:10;93931.31;;;9.53;100.00
20017;BME280;10169;42.664;23.610;2023-04-04T05:54:11;93938.47;;;9.52;100.00
20017;BME280;10169;42.664;23.610;2023-04-04T05:56:12;93934.22;;;9.56;100.00
20017;BME280;10169;42.664;23.610;2023-04-04T05:58:12;93935.84;;;9.57;100.00
20017;BME280;10169;42.664;23.610;2023-04-04T06:00:13;93932.34;;;9.62;100.00
20017;BME280;10169;42.664;23.610;2023-04-04T06:02:14;93937.41;;;9.58;100.00
20017;BME280;10169;42.664;23.610;2023-04-04T06:04:14;93945.09;;;9.55;100.00
20017;BME280;10169;42.664;23.610;2023-04-04T06:06:15;93939.53;;;9.61;100.00
20017;BME280;10169;42.664;23.610;2023-04-04T06:08:15;93943.25;;;9.70;100.00
20017;BME280;10169;42.664;23.610;2023-04-04T06:10:16;93942.97;;;9.72;100.00
20017;BME280;10169;42.664;23.610;2023-04-04T06:12:16;93947.19;;;9.78;100.00
20017;BME280;10169;42.664;23.610;2023-04-04T06:14:16;93950.66;;;9.78;100.00
20017;BME280;10169;42.664;23.610;2023-04-04T06:16:17;93946.16;;;9.74;100.00
20017;BME280;10169;42.664;23.610;2023-04-04T06:18:17;93945.88;;;9.75;100.00
20017;BME280;10169;42.664;23.610;2023-04-04T06:20:17;93947.22;;;9.68;100.00
20017;BME280;10169;42.664;23.610;2023-04-04T06:22:20;93942.97;;;9.72;100.00
20017;BME280;10169;42.664;23.610;2023-04-04T06:24:20;93944.53;;;9.78;100.00
20017;BME280;10169;42.664;23.610;2023-04-04T06:26:21;93954.38;;;9.77;100.00
20017;BME280;10169;42.664;23.610;2023-04-04T06:28:21;93942.97;;;9.67;100.00
20017;BME280;10169;42.664;23.610;2023-04-04T06:30:21;93953.59;;;9.72;100.00
20017;BME280;10169;42.664;23.610;2023-04-04T06:32:22;93965.78;;;9.78;100.00
20017;BME280;10169;42.664;23.610;2023-04-04T06:34:22;93963.41;;;9.81;100.00
20017;BME280;10169;42.664;23.610;2023-04-04T06:36:22;93962.31;;;9.82;100.00
20017;BME280;10169;42.664;23.610;2023-04-04T06:38:23;93965.78;;;9.88;100.00
20017;BME280;10169;42.664;23.610;2023-04-04T06:40:23;93965.50;;;9.99;100.00
20017;BME280;10169;42.664;23.610;2023-04-04T06:42:24;93979.81;;;10.08;100.00
20017;BME280;10169;42.664;23.610;2023-04-04T06:44:24;93965.22;;;10.16;100.00
20017;BME280;10169;42.664;23.610;2023-04-04T06:46:25;93976.09;;;10.19;100.00
20017;BME280;10169;42.664;23.610;2023-04-04T06:48:26;93973.41;;;10.30;100.00
20017;BME280;10169;42.664;23.610;2023-04-04T06:50:28;93973.41;;;10.40;100.00
20017;BME280;10169;42.664;23.610;2023-04-04T06:52:29;93985.81;;;10.54;100.00
20017;BME280;10169;42.664;23.610;2023-04-04T06:54:29;93985.53;;;10.56;100.00
20017;BME280;10169;42.664;23.610;2023-04-04T06:56:29;93981.31;;;10.55;100.00
20017;BME280;10169;42.664;23.610;2023-04-04T06:58:30;93990.91;;;10.51;100.00
20017;BME280;10169;42.664;23.610;2023-04-04T07:00:31;93990.63;;;10.47;100.00
20017;BME280;10169;42.664;23.610;2023-04-04T07:02:31;94002.03;;;10.58;100.00
20017;BME280;10169;42.664;23.610;2023-04-04T07:04:32;93998.25;;;10.74;100.00
20017;BME280;10169;42.664;23.610;2023-04-04T07:06:34;93994.53;;;10.75;100.00
20017;BME280;10169;42.664;23.610;2023-04-04T07:08:34;93999.53;;;10.81;100.00
20017;BME280;10169;42.664;23.610;2023-04-04T07:10:34;94000.59;;;10.80;100.00
20017;BME280;10169;42.664;23.610;2023-04-04T07:12:35;94006.19;;;10.84;100.00
20017;BME280;10169;42.664;23.610;2023-04-04T07:14:35;94005.47;;;10.58;100.00
20017;BME280;10169;42.664;23.610;2023-04-04T07:16:35;94002.28;;;10.66;100.00
20017;BME280;10169;42.664;23.610;2023-04-04T07:18:36;93998.59;;;10.52;100.00
20017;BME280;10169;42.664;23.610;2023-04-04T07:20:36;94008.69;;;10.45;100.00
20017;BME280;10169;42.664;23.610;2023-04-04T07:22:37;94011.38;;;10.30;100.00
20017;BME280;10169;42.664;23.610;2023-04-04T07:24:38;94025.47;;;10.20;100.00
20017;BME280;10169;42.664;23.610;2023-04-04T07:26:38;94031.84;;;10.14;100.00
20017;BME280;10169;42.664;23.610;2023-04-04T07:28:39;94032.44;;;8.84;100.00
20017;BME280;10169;42.664;23.610;2023-04-04T07:30:40;94033.53;;;7.68;100.00
20017;BME280;10169;42.664;23.610;2023-04-04T07:32:40;94048.56;;;7.30;100.00
20017;BME280;10169;42.664;23.610;2023-04-04T07:34:41;94049.69;;;6.91;100.00
20017;BME280;10169;42.664;23.610;2023-04-04T07:36:41;94038.22;;;6.81;100.00
20017;BME280;10169;42.664;23.610;2023-04-04T07:38:42;94048.66;;;6.71;100.00
20017;BME280;10169;42.664;23.610;2023-04-04T07:40:42;94044.00;;;6.56;100.00
20017;BME280;10169;42.664;23.610;2023-04-04T07:42:43;94056.38;;;6.34;100.00
20017;BME280;10169;42.664;23.610;2023-04-04T07:44:44;94064.41;;;6.22;100.00
20017;BME280;10169;42.664;23.610;2023-04-04T07:46:45;94065.22;;;5.90;100.00
20017;BME280;10169;42.664;23.610;2023-04-04T07:48:45;94071.09;;;5.63;100.00
20017;BME280;10169;42.664;23.610;2023-04-04T07:50:45;94073.03;;;5.51;100.00
20017;BME280;10169;42.664;23.610;2023-04-04T07:52:49;94083.72;;;5.61;100.00
20017;BME280;10169;42.664;23.610;2023-04-04T07:54:51;94077.25;;;5.52;100.00
20017;BME280;10169;42.664;23.610;2023-04-04T07:56:51;94084.69;;;5.55;100.00
20017;BME280;10169;42.664;23.610;2023-04-04T07:58:52;94068.59;;;5.40;100.00
20017;BME280;10169;42.664;23.610;2023-04-04T08:00:52;94091.94;;;5.48;100.00
20017;BME280;10169;42.664;23.610;2023-04-04T08:02:53;94094.88;;;5.35;100.00
20017;BME280;10169;42.664;23.610;2023-04-04T08:04:54;94096.97;;;5.22;100.00
20017;BME280;10169;42.664;23.610;2023-04-04T08:06:54;94122.25;;;5.23;100.00
20017;BME280;10169;42.664;23.610;2023-04-04T08:08:55;94106.41;;;5.18;100.00
20017;BME280;10169;42.664;23.610;2023-04-04T08:10:55;94113.00;;;5.20;100.00
20017;BME280;10169;42.664;23.610;2023-04-04T08:12:55;94118.38;;;5.25;100.00
20017;BME280;10169;42.664;23.610;2023-04-04T08:14:56;94117.06;;;5.11;100.00
20017;BME280;10169;42.664;23.610;2023-04-04T08:16:56;94127.28;;;4.96;100.00
20017;BME280;10169;42.664;23.610;2023-04-04T08:18:56;94128.38;;;5.11;100.00
20017;BME280;10169;42.664;23.610;2023-04-04T08:20:58;94130.56;;;5.14;100.00
20017;BME280;10169;42.664;23.610;2023-04-04T08:22:58;94132.53;;;4.96;100.00
20017;BME280;10169;42.664;23.610;2023-04-04T08:24:58;94128.91;;;4.97;100.00
20017;BME280;10169;42.664;23.610;2023-04-04T08:26:59;94139.59;;;5.07;100.00
20017;BME280;10169;42.664;23.610;2023-04-04T08:29:00;94133.50;;;4.90;100.00
20017;BME280;10169;42.664;23.610;2023-04-04T08:31:01;94126.69;;;4.66;100.00
20017;BME280;10169;42.664;23.610;2023-04-04T08:33:02;94143.38;;;4.60;100.00
20017;BME280;10169;42.664;23.610;2023-04-04T08:35:02;94149.09;;;4.57;100.00
20017;BME280;10169;42.664;23.610;2023-04-04T08:37:03;94144.97;;;4.49;100.00
20017;BME280;10169;42.664;23.610;2023-04-04T08:39:04;94140.97;;;4.47;100.00
20017;BME280;10169;42.664;23.610;2023-04-04T08:41:04;94129.56;;;4.41;100.00
20017;BME280;10169;42.664;23.610;2023-04-04T08:43:04;94144.91;;;4.32;100.00
20017;BME280;10169;42.664;23.610;2023-04-04T08:45:06;94153.81;;;4.31;100.00
20017;BME280;10169;42.664;23.610;2023-04-04T08:47:06;94155.06;;;4.40;100.00
20017;BME280;10169;42.664;23.610;2023-04-04T08:49:08;94160.44;;;4.46;100.00
20017;BME280;10169;42.664;23.610;2023-04-04T08:51:10;94154.63;;;4.44;100.00
20017;BME280;10169;42.664;23.610;2023-04-04T08:53:12;94146.34;;;4.28;100.00
20017;BME280;10169;42.664;23.610;2023-04-04T08:55:13;94175.78;;;4.37;100.00
20017;BME280;10169;42.664;23.610;2023-04-04T08:57:14;94181.72;;;4.32;100.00
20017;BME280;10169;42.664;23.610;2023-04-04T08:59:15;94162.72;;;4.19;100.00
20017;BME280;10169;42.664;23.610;2023-04-04T09:01:17;94179.63;;;4.23;100.00
20017;BME280;10169;42.664;23.610;2023-04-04T09:03:24;94179.97;;;4.26;100.00
20017;BME280;10169;42.664;23.610;2023-04-04T09:05:29;94188.22;;;4.18;100.00
20017;BME280;10169;42.664;23.610;2023-04-04T09:07:30;94184.31;;;4.09;100.00
20017;BME280;10169;42.664;23.610;2023-04-04T09:09:32;94182.81;;;4.13;100.00
20017;BME280;10169;42.664;23.610;2023-04-04T09:11:33;94195.06;;;4.08;100.00
20017;BME280;10169;42.664;23.610;2023-04-04T09:13:34;94187.94;;;4.08;100.00
20017;BME280;10169;42.664;23.610;2023-04-04T09:15:39;94185.31;;;4.08;100.00
20017;BME280;10169;42.664;23.610;2023-04-04T09:17:41;94193.34;;;4.13;100.00
20017;BME280;10169;42.664;23.610;2023-04-04T09:19:41;94171.75;;;4.11;100.00
20017;BME280;10169;42.664;23.610;2023-04-04T09:21:45;94197.00;;;4.12;100.00
20017;BME280;10169;42.664;23.610;2023-04-04T09:23:45;94197.47;;;4.21;100.00
20017;BME280;10169;42.664;23.610;2023-04-04T09:25:49;94206.41;;;4.31;100.00
20017;BME280;10169;42.664;23.610;2023-04-04T09:27:53;94204.69;;;4.25;100.00
20017;BME280;10169;42.664;23.610;2023-04-04T09:29:55;94203.53;;;4.21;100.00
20017;BME280;10169;42.664;23.610;2023-04-04T09:31:59;94212.66;;;4.30;100.00
20017;BME280;10169;42.664;23.610;2023-04-04T09:33:59;94207.66;;;4.29;100.00
20017;BME280;10169;42.664;23.610;2023-04-04T09:36:01;94212.78;;;4.35;100.00
20017;BME280;10169;42.664;23.610;2023-04-04T09:38:02;94205.81;;;4.29;100.00
20017;BME280;10169;42.664;23.610;2023-04-04T09:40:03;94209.72;;;4.27;100.00
20017;BME280;10169;42.664;23.610;2023-04-04T09:42:03;94219.41;;;4.26;100.00
20017;BME280;10169;42.664;23.610;2023-04-04T09:44:06;94206.06;;;4.28;100.00
20017;BME280;10169;42.664;23.610;2023-04-04T09:46:10;94211.09;;;4.29;100.00
20017;BME280;10169;42.664;23.610;2023-04-04T09:48:10;94216.56;;;4.16;100.00
20017;BME280;10169;42.664;23.610;2023-04-04T09:50:10;94220.78;;;4.17;100.00
20017;BME280;10169;42.664;23.610;2023-04-04T09:52:19;94202.94;;;4.19;100.00
20017;BME280;10169;42.664;23.610;2023-04-04T09:54:20;94226.72;;;4.13;100.00
20017;BME280;10169;42.664;23.610;2023-04-04T09:56:21;94227.41;;;4.20;100.00
20017;BME280;10169;42.664;23.610;2023-04-04T09:58:25;94227.78;;;4.35;100.00
20017;BME280;10169;42.664;23.610;2023-04-04T10:00:27;94221.59;;;4.29;100.00
20017;BME280;10169;42.664;23.610;2023-04-04T10:02:29;94226.50;;;4.26;100.00
20017;BME280;10169;42.664;23.610;2023-04-04T10:04:33;94236.00;;;4.27;100.00
20017;BME280;10169;42.664;23.610;2023-04-04T10:06:36;94230.50;;;4.28;100.00
20017;BME280;10169;42.664;23.610;2023-04-04T10:08:40;94234.28;;;4.21;100.00
20017;BME280;10169;42.664;23.610;2023-04-04T10:10:51;94233.84;;;4.35;100.00
20017;BME280;10169;42.664;23.610;2023-04-04T10:12:55;94241.94;;;4.22;100.00
20017;BME280;10169;42.664;23.610;2023-04-04T10:14:59;94244.69;;;4.27;100.00
20017;BME280;10169;42.664;23.610;2023-04-04T10:17:00;94236.25;;;4.37;100.00
20017;BME280;10169;42.664;23.610;2023-04-04T10:19:02;94246.66;;;4.44;100.00
20017;BME280;10169;42.664;23.610;2023-04-04T10:21:03;94235.81;;;4.52;100.00
20017;BME280;10169;42.664;23.610;2023-04-04T10:23:04;94240.84;;;4.42;100.00
20017;BME280;10169;42.664;23.610;2023-04-04T10:25:05;94246.66;;;4.44;100.00
20017;BME280;10169;42.664;23.610;2023-04-04T10:27:06;94247.47;;;4.32;100.00
20017;BME280;10169;42.664;23.610;2023-04-04T10:29:06;94251.78;;;4.27;100.00
20017;BME280;10169;42.664;23.610;2023-04-04T10:31:25;94248.50;;;4.55;100.00
20017;BME280;10169;42.664;23.610;2023-04-04T10:33:29;94261.88;;;4.42;100.00
20017;BME280;10169;42.664;23.610;2023-04-04T10:35:32;94256.59;;;4.53;100.00
20017;BME280;10169;42.664;23.610;2023-04-04T10:37:36;94256.97;;;4.57;100.00